Hauptseite
METAR-TAF:

METAR-TAF

Flughäfen :

Wick Airport

Wick, Schottland

Breite: 58-27N, Länge: 003-05W, Höhe: 39 m

Beobachtung

Neuester Wetterbericht von vor 32 Minuten, um 05:20 UTC
Wind 9 kt aus Süd/Südost
Temperatur 10°C
Luftfeuchtigkeit 93%
Luftdruck 1027 hPa
Sichtweite 10 km oder mehr

METAR: EGPC 310520Z AUTO 15009KT 9999 NCD 10/09 Q1027

Zeit: 06:52 (05:52 UTC)

Prognose

Neuester Wetterbericht von vor 3 Stunden und 58 Minuten, um 01:54 UTC
Gültige Prognose vom 31 um 03 UTC bis 31 um 12 UTC
Wind 12 kt aus Süd/Südost
Sichtweite 10 km oder mehr
Leicht bewölkt in der Höhe von 4000 ft
Wahrscheinlichkeit 40% :
Zeitweise
vom 31 um 03 UTC bis 31 um 12 UTC
Wind 15 kt aus Süd/Südost, Böen bis zu 25 kt

TAF: EGPC 310154Z 3103/3112 15012KT 9999 FEW040 PROB40 TEMPO 3103/3112 16015G25KT

Wetterbeobachtungen und Prognosen von mehr als 4000 Flughäfen (METAR und TAF Bericht).

Die verfügbaren Stationen werden durch gelbe und rote Markierungen auf der Karte dargestellt.

Führen Sie die Maus auf sie, um den Namen der Station zu sehen.

Darauf klicken, um die Beobachtung von Wetterbeobachtungen und Prognosen zu sehen.

Um die Karte zu ändern : klicken Sie auf den grünen Tasten mit einem schwarzen Kreuz Zum Vergrößern, auf den grünen Button mit einem Gedankenstrich zu verkleinern, oder auf die grünen Pfeile für benachbarte Karten.


METAR-TAF: